N511WM KLOU-KCMH
Flight info
| Callsign | N511WM |
|---|---|
| Flight time | 1h 2m |
| Altitude | 25000 |
| Route | SPILR BNGIN PODGY FISUL JAKTZ JAKTZ2 |
| Aircraft | BE60/L-SDFGRY/C |
Departure
| Time | 2026-04-24 00:07 |
|---|---|
| Airport | Bowman Field (KLOU) |
Arrival
| Time | 2026-04-24 01:10 |
|---|---|
| Airport | John Glenn Columbus International Airport (KCMH) |
| Time | Latitude | Longitude | Altitude | Speed | Heading |
|---|---|---|---|---|---|
| 2026-04-23 23:50 | 38.22540 | -85.66726 | 549 ft | 0 kts | 328° |
| 2026-04-23 23:59 | 38.22552 | -85.66734 | 549 ft | 6 kts | 353° |
| 2026-04-23 23:59 | 38.22600 | -85.66648 | 549 ft | 19 kts | 58° |
| 2026-04-24 00:00 | 38.22671 | -85.66493 | 550 ft | 7 kts | 59° |
| 2026-04-24 00:00 | 38.22684 | -85.66468 | 551 ft | 8 kts | 56° |
| 2026-04-24 00:00 | 38.22733 | -85.66363 | 550 ft | 21 kts | 59° |
| 2026-04-24 00:00 | 38.22782 | -85.66259 | 552 ft | 0 kts | 60° |
| 2026-04-24 00:01 | 38.22801 | -85.66213 | 549 ft | 12 kts | 61° |
| 2026-04-24 00:01 | 38.22867 | -85.66074 | 549 ft | 24 kts | 60° |
| 2026-04-24 00:01 | 38.22956 | -85.65878 | 549 ft | 25 kts | 61° |
| 2026-04-24 00:01 | 38.23044 | -85.65690 | 549 ft | 17 kts | 60° |
| 2026-04-24 00:02 | 38.23084 | -85.65607 | 549 ft | 5 kts | 31° |
| 2026-04-24 00:02 | 38.23093 | -85.65610 | 549 ft | 0 kts | 285° |
| 2026-04-24 00:06 | 38.23093 | -85.65611 | 549 ft | 0 kts | 286° |
| 2026-04-24 00:06 | 38.23106 | -85.65620 | 549 ft | 1 kts | 359° |
| 2026-04-24 00:06 | 38.23142 | -85.65642 | 549 ft | 9 kts | 288° |
| 2026-04-24 00:06 | 38.23109 | -85.65722 | 549 ft | 27 kts | 240° |
| 2026-04-24 00:07 | 38.22893 | -85.66186 | 556 ft | 89 kts | 240° |
| 2026-04-24 00:07 | 38.22561 | -85.66956 | 765 ft | 106 kts | 238° |
| 2026-04-24 00:07 | 38.22167 | -85.67848 | 1016 ft | 125 kts | 236° |
| 2026-04-24 00:07 | 38.21969 | -85.68990 | 1266 ft | 153 kts | 281° |
| 2026-04-24 00:08 | 38.22611 | -85.70065 | 1699 ft | 158 kts | 324° |
| 2026-04-24 00:08 | 38.23675 | -85.70588 | 2022 ft | 167 kts | 340° |
| 2026-04-24 00:08 | 38.24750 | -85.71032 | 2491 ft | 160 kts | 335° |
| 2026-04-24 00:08 | 38.25804 | -85.71555 | 2821 ft | 165 kts | 336° |
| 2026-04-24 00:09 | 38.26897 | -85.72023 | 3165 ft | 166 kts | 337° |
| 2026-04-24 00:09 | 38.27996 | -85.72481 | 3509 ft | 167 kts | 337° |
| 2026-04-24 00:09 | 38.29094 | -85.72950 | 3833 ft | 166 kts | 336° |
| 2026-04-24 00:09 | 38.30191 | -85.73415 | 4181 ft | 166 kts | 337° |
| 2026-04-24 00:10 | 38.31290 | -85.73877 | 4532 ft | 166 kts | 336° |
| 2026-04-24 00:10 | 38.32382 | -85.74328 | 4873 ft | 168 kts | 337° |
| 2026-04-24 00:10 | 38.33503 | -85.74758 | 5229 ft | 169 kts | 339° |
| 2026-04-24 00:10 | 38.34635 | -85.75163 | 5605 ft | 169 kts | 339° |
| 2026-04-24 00:11 | 38.35758 | -85.75569 | 5980 ft | 167 kts | 339° |
| 2026-04-24 00:11 | 38.36873 | -85.75974 | 6344 ft | 166 kts | 339° |
| 2026-04-24 00:11 | 38.37986 | -85.76379 | 6696 ft | 167 kts | 339° |
| 2026-04-24 00:11 | 38.39103 | -85.76785 | 7055 ft | 166 kts | 339° |
| 2026-04-24 00:12 | 38.40218 | -85.77194 | 7407 ft | 167 kts | 339° |
| 2026-04-24 00:12 | 38.41338 | -85.77603 | 7736 ft | 168 kts | 339° |
| 2026-04-24 00:12 | 38.42466 | -85.78013 | 8082 ft | 169 kts | 339° |
| 2026-04-24 00:12 | 38.43597 | -85.78426 | 8424 ft | 169 kts | 339° |
| 2026-04-24 00:13 | 38.44735 | -85.78842 | 8778 ft | 171 kts | 340° |
| 2026-04-24 00:13 | 38.45880 | -85.79259 | 9146 ft | 171 kts | 340° |
| 2026-04-24 00:13 | 38.47020 | -85.79674 | 9516 ft | 171 kts | 340° |
| 2026-04-24 00:13 | 38.48162 | -85.80092 | 9885 ft | 171 kts | 340° |
| 2026-04-24 00:14 | 38.49307 | -85.80511 | 10216 ft | 171 kts | 340° |
| 2026-04-24 00:14 | 38.50454 | -85.80932 | 10552 ft | 171 kts | 340° |
| 2026-04-24 00:14 | 38.51586 | -85.81345 | 10886 ft | 171 kts | 340° |
| 2026-04-24 00:14 | 38.52733 | -85.81764 | 11225 ft | 171 kts | 340° |
| 2026-04-24 00:15 | 38.53894 | -85.82190 | 11575 ft | 171 kts | 340° |
| 2026-04-24 00:15 | 38.55042 | -85.82609 | 11922 ft | 172 kts | 340° |
| 2026-04-24 00:15 | 38.56175 | -85.83024 | 12273 ft | 171 kts | 340° |
| 2026-04-24 00:15 | 38.57323 | -85.83445 | 12639 ft | 172 kts | 340° |
| 2026-04-24 00:16 | 38.58469 | -85.83866 | 13006 ft | 171 kts | 340° |
| 2026-04-24 00:16 | 38.59611 | -85.84285 | 13369 ft | 170 kts | 340° |
| 2026-04-24 00:16 | 38.60744 | -85.84698 | 13732 ft | 170 kts | 340° |
| 2026-04-24 00:16 | 38.61878 | -85.85113 | 14061 ft | 169 kts | 340° |
| 2026-04-24 00:17 | 38.63011 | -85.85529 | 14376 ft | 169 kts | 339° |
| 2026-04-24 00:17 | 38.64148 | -85.85948 | 14695 ft | 170 kts | 340° |
| 2026-04-24 00:17 | 38.65285 | -85.86366 | 15017 ft | 170 kts | 340° |
| 2026-04-24 00:17 | 38.66425 | -85.86784 | 15336 ft | 171 kts | 340° |
| 2026-04-24 00:18 | 38.67567 | -85.87204 | 15667 ft | 171 kts | 339° |
| 2026-04-24 00:18 | 38.68714 | -85.87626 | 15995 ft | 172 kts | 340° |
| 2026-04-24 00:18 | 38.69869 | -85.88050 | 16293 ft | 174 kts | 339° |
| 2026-04-24 00:18 | 38.71038 | -85.88480 | 16598 ft | 176 kts | 339° |
| 2026-04-24 00:19 | 38.72216 | -85.88914 | 16917 ft | 177 kts | 339° |
| 2026-04-24 00:19 | 38.73405 | -85.89351 | 17235 ft | 178 kts | 339° |
| 2026-04-24 00:19 | 38.74596 | -85.89789 | 17558 ft | 178 kts | 339° |
| 2026-04-24 00:19 | 38.75792 | -85.90230 | 17884 ft | 179 kts | 339° |
| 2026-04-24 00:20 | 38.76995 | -85.90674 | 18211 ft | 180 kts | 339° |
| 2026-04-24 00:20 | 38.78201 | -85.91118 | 18491 ft | 181 kts | 339° |
| 2026-04-24 00:20 | 38.79396 | -85.91558 | 18769 ft | 181 kts | 339° |
| 2026-04-24 00:20 | 38.80610 | -85.92006 | 19052 ft | 182 kts | 339° |
| 2026-04-24 00:21 | 38.81842 | -85.92461 | 19344 ft | 182 kts | 339° |
| 2026-04-24 00:21 | 38.83061 | -85.92911 | 19636 ft | 182 kts | 339° |
| 2026-04-24 00:21 | 38.84268 | -85.93356 | 19925 ft | 183 kts | 339° |
| 2026-04-24 00:21 | 38.85490 | -85.93808 | 20215 ft | 183 kts | 338° |
| 2026-04-24 00:22 | 38.86718 | -85.94261 | 20503 ft | 183 kts | 338° |
| 2026-04-24 00:22 | 38.87938 | -85.94712 | 20789 ft | 183 kts | 338° |
| 2026-04-24 00:22 | 38.89156 | -85.95164 | 21067 ft | 182 kts | 338° |
| 2026-04-24 00:22 | 38.90373 | -85.95613 | 21340 ft | 181 kts | 338° |
| 2026-04-24 00:23 | 38.91582 | -85.96059 | 21603 ft | 180 kts | 338° |
| 2026-04-24 00:23 | 38.92782 | -85.96504 | 21857 ft | 179 kts | 338° |
| 2026-04-24 00:23 | 38.93974 | -85.96946 | 22098 ft | 178 kts | 338° |
| 2026-04-24 00:23 | 38.95159 | -85.97384 | 22331 ft | 177 kts | 337° |
| 2026-04-24 00:24 | 38.96337 | -85.97821 | 22548 ft | 176 kts | 337° |
| 2026-04-24 00:24 | 38.97509 | -85.98255 | 22758 ft | 175 kts | 337° |
| 2026-04-24 00:24 | 38.98673 | -85.98687 | 22958 ft | 174 kts | 337° |
| 2026-04-24 00:24 | 38.99830 | -85.99117 | 23149 ft | 173 kts | 337° |
| 2026-04-24 00:25 | 39.00982 | -85.99546 | 23330 ft | 172 kts | 337° |
| 2026-04-24 00:25 | 39.02126 | -85.99969 | 23504 ft | 171 kts | 337° |
| 2026-04-24 00:25 | 39.03266 | -86.00391 | 23650 ft | 170 kts | 337° |
| 2026-04-24 00:25 | 39.04401 | -86.00813 | 23784 ft | 169 kts | 336° |
| 2026-04-24 00:26 | 39.05533 | -86.01233 | 23914 ft | 169 kts | 336° |
| 2026-04-24 00:26 | 39.06656 | -86.01651 | 24018 ft | 168 kts | 336° |
| 2026-04-24 00:26 | 39.07779 | -86.02065 | 24138 ft | 168 kts | 338° |
| 2026-04-24 00:26 | 39.08979 | -86.02069 | 24225 ft | 180 kts | 9° |
| 2026-04-24 00:27 | 39.10103 | -86.01293 | 24270 ft | 192 kts | 41° |
| 2026-04-24 00:27 | 39.10818 | -85.99816 | 24279 ft | 200 kts | 75° |
| 2026-04-24 00:27 | 39.11099 | -85.98039 | 24276 ft | 206 kts | 81° |
| 2026-04-24 00:27 | 39.11360 | -85.96195 | 24275 ft | 212 kts | 80° |
| 2026-04-24 00:28 | 39.11635 | -85.94302 | 24273 ft | 218 kts | 80° |
| 2026-04-24 00:28 | 39.11920 | -85.92358 | 24273 ft | 223 kts | 80° |
| 2026-04-24 00:28 | 39.12112 | -85.91051 | 24273 ft | 226 kts | 80° |
| 2026-04-24 00:28 | 39.12499 | -85.88402 | 24410 ft | 224 kts | 80° |
| 2026-04-24 00:29 | 39.12690 | -85.87100 | 24473 ft | 223 kts | 80° |
| 2026-04-24 00:29 | 39.12976 | -85.85142 | 24559 ft | 222 kts | 80° |
| 2026-04-24 00:29 | 39.13260 | -85.83191 | 24635 ft | 221 kts | 80° |
| 2026-04-24 00:29 | 39.13639 | -85.80598 | 24745 ft | 225 kts | 80° |
| 2026-04-24 00:30 | 39.13834 | -85.79252 | 24818 ft | 228 kts | 80° |
| 2026-04-24 00:30 | 39.14127 | -85.77226 | 24940 ft | 232 kts | 80° |
| 2026-04-24 00:30 | 39.14433 | -85.75134 | 24954 ft | 243 kts | 80° |
| 2026-04-24 00:30 | 39.14747 | -85.72955 | 24952 ft | 252 kts | 80° |
| 2026-04-24 00:31 | 39.15072 | -85.70699 | 24953 ft | 260 kts | 80° |
| 2026-04-24 00:31 | 39.15409 | -85.68369 | 24949 ft | 267 kts | 80° |
| 2026-04-24 00:31 | 39.15753 | -85.65987 | 24950 ft | 273 kts | 80° |
| 2026-04-24 00:31 | 39.16104 | -85.63551 | 24947 ft | 279 kts | 80° |
| 2026-04-24 00:32 | 39.16454 | -85.61112 | 24951 ft | 283 kts | 80° |
| 2026-04-24 00:32 | 39.16820 | -85.58569 | 24948 ft | 286 kts | 80° |
| 2026-04-24 00:32 | 39.17184 | -85.56032 | 24950 ft | 289 kts | 80° |
| 2026-04-24 00:32 | 39.17552 | -85.53471 | 24952 ft | 292 kts | 80° |
| 2026-04-24 00:33 | 39.17919 | -85.50892 | 24950 ft | 293 kts | 80° |
| 2026-04-24 00:33 | 39.18289 | -85.48296 | 24951 ft | 295 kts | 80° |
| 2026-04-24 00:33 | 39.18662 | -85.45683 | 24951 ft | 297 kts | 80° |
| 2026-04-24 00:33 | 39.19035 | -85.43059 | 24951 ft | 298 kts | 80° |
| 2026-04-24 00:34 | 39.19409 | -85.40422 | 24952 ft | 299 kts | 79° |
| 2026-04-24 00:34 | 39.19783 | -85.37788 | 24954 ft | 299 kts | 79° |
| 2026-04-24 00:34 | 39.20158 | -85.35145 | 24953 ft | 300 kts | 80° |
| 2026-04-24 00:34 | 39.20532 | -85.32491 | 24954 ft | 300 kts | 80° |
| 2026-04-24 00:35 | 39.20905 | -85.29841 | 24968 ft | 300 kts | 80° |
| 2026-04-24 00:35 | 39.21273 | -85.27229 | 24970 ft | 301 kts | 80° |
| 2026-04-24 00:35 | 39.21648 | -85.24568 | 24969 ft | 301 kts | 80° |
| 2026-04-24 00:35 | 39.22022 | -85.21909 | 24970 ft | 301 kts | 80° |
| 2026-04-24 00:36 | 39.22394 | -85.19248 | 24966 ft | 302 kts | 80° |
| 2026-04-24 00:36 | 39.22767 | -85.16583 | 24966 ft | 302 kts | 80° |
| 2026-04-24 00:36 | 39.23139 | -85.13916 | 24967 ft | 302 kts | 80° |
| 2026-04-24 00:36 | 39.23512 | -85.11244 | 24967 ft | 302 kts | 80° |
| 2026-04-24 00:37 | 39.23884 | -85.08574 | 24965 ft | 302 kts | 80° |
| 2026-04-24 00:37 | 39.24252 | -85.05905 | 24965 ft | 302 kts | 80° |
| 2026-04-24 00:37 | 39.24623 | -85.03235 | 24972 ft | 302 kts | 79° |
| 2026-04-24 00:37 | 39.24994 | -85.00563 | 24963 ft | 303 kts | 79° |
| 2026-04-24 00:38 | 39.25363 | -84.97890 | 24964 ft | 303 kts | 79° |
| 2026-04-24 00:38 | 39.25731 | -84.95215 | 24966 ft | 303 kts | 79° |
| 2026-04-24 00:38 | 39.26100 | -84.92538 | 24964 ft | 303 kts | 79° |
| 2026-04-24 00:38 | 39.26468 | -84.89862 | 24969 ft | 303 kts | 79° |
| 2026-04-24 00:39 | 39.26835 | -84.87184 | 24967 ft | 303 kts | 80° |
| 2026-04-24 00:39 | 39.27202 | -84.84506 | 24968 ft | 303 kts | 79° |
| 2026-04-24 00:39 | 39.27568 | -84.81827 | 24973 ft | 303 kts | 79° |
| 2026-04-24 00:39 | 39.27934 | -84.79146 | 24974 ft | 303 kts | 80° |
| 2026-04-24 00:40 | 39.28299 | -84.76462 | 24973 ft | 303 kts | 80° |
| 2026-04-24 00:40 | 39.28664 | -84.73780 | 24973 ft | 303 kts | 80° |
| 2026-04-24 00:40 | 39.29027 | -84.71101 | 24974 ft | 303 kts | 80° |
| 2026-04-24 00:40 | 39.29390 | -84.68419 | 24976 ft | 303 kts | 80° |
| 2026-04-24 00:41 | 39.29753 | -84.65737 | 24977 ft | 303 kts | 79° |
| 2026-04-24 00:41 | 39.30115 | -84.63057 | 24979 ft | 303 kts | 79° |
| 2026-04-24 00:41 | 39.30476 | -84.60377 | 24979 ft | 303 kts | 79° |
| 2026-04-24 00:41 | 39.30837 | -84.57699 | 24980 ft | 303 kts | 79° |
| 2026-04-24 00:42 | 39.31191 | -84.55053 | 24980 ft | 303 kts | 79° |
| 2026-04-24 00:42 | 39.31555 | -84.52340 | 24980 ft | 303 kts | 79° |
| 2026-04-24 00:42 | 39.31908 | -84.49693 | 24980 ft | 303 kts | 79° |
| 2026-04-24 00:42 | 39.32267 | -84.47009 | 24980 ft | 303 kts | 79° |
| 2026-04-24 00:43 | 39.32624 | -84.44330 | 24976 ft | 303 kts | 79° |
| 2026-04-24 00:43 | 39.32980 | -84.41652 | 24978 ft | 303 kts | 79° |
| 2026-04-24 00:43 | 39.33336 | -84.38978 | 24977 ft | 302 kts | 79° |
| 2026-04-24 00:43 | 39.33691 | -84.36303 | 24972 ft | 302 kts | 79° |
| 2026-04-24 00:44 | 39.34045 | -84.33627 | 24973 ft | 302 kts | 79° |
| 2026-04-24 00:44 | 39.34398 | -84.30948 | 24973 ft | 302 kts | 79° |
| 2026-04-24 00:44 | 39.34751 | -84.28272 | 24973 ft | 302 kts | 79° |
| 2026-04-24 00:44 | 39.35103 | -84.25598 | 24971 ft | 302 kts | 79° |
| 2026-04-24 00:45 | 39.35453 | -84.22927 | 24970 ft | 302 kts | 79° |
| 2026-04-24 00:45 | 39.35804 | -84.20248 | 24972 ft | 302 kts | 79° |
| 2026-04-24 00:45 | 39.36155 | -84.17576 | 24972 ft | 302 kts | 79° |
| 2026-04-24 00:45 | 39.36503 | -84.14905 | 24973 ft | 301 kts | 79° |
| 2026-04-24 00:46 | 39.36852 | -84.12233 | 24975 ft | 301 kts | 79° |
| 2026-04-24 00:46 | 39.37200 | -84.09563 | 24975 ft | 301 kts | 79° |
| 2026-04-24 00:46 | 39.37546 | -84.06891 | 24982 ft | 301 kts | 79° |
| 2026-04-24 00:46 | 39.37893 | -84.04219 | 24984 ft | 301 kts | 79° |
| 2026-04-24 00:47 | 39.38241 | -84.01548 | 24987 ft | 300 kts | 79° |
| 2026-04-24 00:47 | 39.38581 | -83.98922 | 24986 ft | 300 kts | 79° |
| 2026-04-24 00:47 | 39.38921 | -83.96259 | 24987 ft | 300 kts | 79° |
| 2026-04-24 00:47 | 39.39482 | -83.93677 | 24985 ft | 298 kts | 64° |
| 2026-04-24 00:48 | 39.40398 | -83.91280 | 24987 ft | 297 kts | 61° |
| 2026-04-24 00:48 | 39.41316 | -83.88889 | 24990 ft | 297 kts | 61° |
| 2026-04-24 00:48 | 39.42224 | -83.86493 | 24986 ft | 297 kts | 61° |
| 2026-04-24 00:48 | 39.43139 | -83.84094 | 24919 ft | 300 kts | 61° |
| 2026-04-24 00:49 | 39.44090 | -83.81607 | 24458 ft | 317 kts | 61° |
| 2026-04-24 00:49 | 39.45087 | -83.78994 | 23975 ft | 331 kts | 62° |
| 2026-04-24 00:49 | 39.46119 | -83.76273 | 23432 ft | 343 kts | 62° |
| 2026-04-24 00:49 | 39.47168 | -83.73509 | 22806 ft | 342 kts | 62° |
| 2026-04-24 00:50 | 39.48214 | -83.70753 | 22195 ft | 340 kts | 62° |
| 2026-04-24 00:50 | 39.49246 | -83.68030 | 21601 ft | 336 kts | 62° |
| 2026-04-24 00:50 | 39.50272 | -83.65329 | 21017 ft | 332 kts | 63° |
| 2026-04-24 00:50 | 39.51282 | -83.62664 | 20451 ft | 328 kts | 63° |
| 2026-04-24 00:51 | 39.52282 | -83.60022 | 19901 ft | 324 kts | 63° |
| 2026-04-24 00:51 | 39.53267 | -83.57417 | 19363 ft | 320 kts | 63° |
| 2026-04-24 00:51 | 39.54240 | -83.54843 | 18846 ft | 316 kts | 63° |
| 2026-04-24 00:51 | 39.55189 | -83.52332 | 18343 ft | 312 kts | 63° |
| 2026-04-24 00:52 | 39.56148 | -83.49787 | 17768 ft | 308 kts | 63° |
| 2026-04-24 00:52 | 39.57071 | -83.47341 | 17207 ft | 304 kts | 63° |
| 2026-04-24 00:52 | 39.57991 | -83.44899 | 16649 ft | 299 kts | 63° |
| 2026-04-24 00:52 | 39.58989 | -83.42563 | 16106 ft | 294 kts | 52° |
| 2026-04-24 00:53 | 39.60374 | -83.40655 | 15577 ft | 289 kts | 38° |
| 2026-04-24 00:53 | 39.61946 | -83.39079 | 15233 ft | 281 kts | 36° |
| 2026-04-24 00:53 | 39.63461 | -83.37547 | 14957 ft | 273 kts | 36° |
| 2026-04-24 00:53 | 39.64951 | -83.36027 | 14689 ft | 272 kts | 36° |
| 2026-04-24 00:54 | 39.66442 | -83.34513 | 14406 ft | 272 kts | 36° |
| 2026-04-24 00:54 | 39.67940 | -83.32996 | 14061 ft | 274 kts | 36° |
| 2026-04-24 00:54 | 39.69441 | -83.31469 | 13692 ft | 275 kts | 36° |
| 2026-04-24 00:54 | 39.70953 | -83.29934 | 13290 ft | 276 kts | 36° |
| 2026-04-24 00:55 | 39.72384 | -83.28268 | 12888 ft | 278 kts | 49° |
| 2026-04-24 00:55 | 39.73480 | -83.26190 | 12502 ft | 278 kts | 56° |
| 2026-04-24 00:55 | 39.74542 | -83.24092 | 12087 ft | 278 kts | 55° |
| 2026-04-24 00:55 | 39.75620 | -83.21992 | 11668 ft | 280 kts | 56° |
| 2026-04-24 00:56 | 39.76700 | -83.19885 | 11246 ft | 280 kts | 56° |
| 2026-04-24 00:56 | 39.77776 | -83.17779 | 10832 ft | 279 kts | 56° |
| 2026-04-24 00:56 | 39.78840 | -83.15684 | 10422 ft | 277 kts | 56° |
| 2026-04-24 00:56 | 39.79905 | -83.13619 | 10026 ft | 274 kts | 55° |
| 2026-04-24 00:57 | 39.80976 | -83.11575 | 9612 ft | 273 kts | 55° |
| 2026-04-24 00:57 | 39.82034 | -83.09544 | 9187 ft | 270 kts | 55° |
| 2026-04-24 00:57 | 39.84116 | -83.05515 | 8372 ft | 266 kts | 55° |
| 2026-04-24 00:58 | 39.85133 | -83.03546 | 8128 ft | 259 kts | 56° |
| 2026-04-24 00:58 | 39.86131 | -83.01605 | 7885 ft | 257 kts | 55° |
| 2026-04-24 00:58 | 39.87130 | -82.99677 | 7641 ft | 255 kts | 55° |
| 2026-04-24 00:58 | 39.88125 | -82.97754 | 7394 ft | 258 kts | 56° |
| 2026-04-24 00:59 | 39.89116 | -82.95826 | 7176 ft | 260 kts | 56° |
| 2026-04-24 00:59 | 39.90059 | -82.93814 | 7011 ft | 259 kts | 66° |
| 2026-04-24 00:59 | 39.90535 | -82.91610 | 6979 ft | 252 kts | 83° |
| 2026-04-24 00:59 | 39.90546 | -82.89305 | 6601 ft | 257 kts | 97° |
| 2026-04-24 01:00 | 39.90402 | -82.87012 | 6196 ft | 249 kts | 95° |
| 2026-04-24 01:00 | 39.90297 | -82.84829 | 5990 ft | 230 kts | 95° |
| 2026-04-24 01:00 | 39.90192 | -82.82773 | 5987 ft | 228 kts | 96° |
| 2026-04-24 01:00 | 39.90076 | -82.80710 | 5986 ft | 229 kts | 96° |
| 2026-04-24 01:01 | 39.89961 | -82.78632 | 5989 ft | 230 kts | 96° |
| 2026-04-24 01:01 | 39.89844 | -82.76556 | 5988 ft | 231 kts | 96° |
| 2026-04-24 01:01 | 39.89723 | -82.74464 | 5988 ft | 232 kts | 96° |
| 2026-04-24 01:01 | 39.89602 | -82.72366 | 6004 ft | 233 kts | 96° |
| 2026-04-24 01:02 | 39.89479 | -82.70259 | 6006 ft | 234 kts | 96° |
| 2026-04-24 01:02 | 39.89355 | -82.68113 | 5801 ft | 240 kts | 96° |
| 2026-04-24 01:02 | 39.89456 | -82.65982 | 5554 ft | 239 kts | 72° |
| 2026-04-24 01:02 | 39.90338 | -82.64212 | 5294 ft | 233 kts | 39° |
| 2026-04-24 01:03 | 39.91733 | -82.63279 | 5046 ft | 223 kts | 14° |
| 2026-04-24 01:03 | 39.93217 | -82.62774 | 4804 ft | 217 kts | 4° |
| 2026-04-24 01:03 | 39.94701 | -82.62732 | 4555 ft | 212 kts | 355° |
| 2026-04-24 01:03 | 39.96149 | -82.62916 | 4284 ft | 206 kts | 337° |
| 2026-04-24 01:04 | 39.97287 | -82.63952 | 4025 ft | 199 kts | 309° |
| 2026-04-24 01:04 | 39.97860 | -82.65475 | 3996 ft | 182 kts | 277° |
| 2026-04-24 01:04 | 39.98003 | -82.67107 | 3830 ft | 182 kts | 274° |
| 2026-04-24 01:04 | 39.98119 | -82.68754 | 3625 ft | 181 kts | 272° |
| 2026-04-24 01:05 | 39.98197 | -82.70361 | 3376 ft | 171 kts | 272° |
| 2026-04-24 01:05 | 39.98282 | -82.71774 | 3162 ft | 137 kts | 272° |
| 2026-04-24 01:05 | 39.98344 | -82.72921 | 2884 ft | 120 kts | 271° |
| 2026-04-24 01:05 | 39.98402 | -82.73983 | 2578 ft | 115 kts | 272° |
| 2026-04-24 01:06 | 39.98459 | -82.75009 | 2291 ft | 111 kts | 272° |
| 2026-04-24 01:06 | 39.98516 | -82.75909 | 2286 ft | 92 kts | 271° |
| 2026-04-24 01:06 | 39.98561 | -82.76731 | 2286 ft | 90 kts | 271° |
| 2026-04-24 01:06 | 39.98606 | -82.77550 | 2274 ft | 94 kts | 271° |
| 2026-04-24 01:07 | 39.98657 | -82.78428 | 2158 ft | 98 kts | 271° |
| 2026-04-24 01:07 | 39.98708 | -82.79313 | 2026 ft | 97 kts | 271° |
| 2026-04-24 01:07 | 39.98756 | -82.80170 | 1899 ft | 92 kts | 270° |
| 2026-04-24 01:07 | 39.98799 | -82.80984 | 1784 ft | 88 kts | 271° |
| 2026-04-24 01:08 | 39.98843 | -82.81771 | 1678 ft | 88 kts | 271° |
| 2026-04-24 01:08 | 39.98890 | -82.82596 | 1561 ft | 94 kts | 272° |
| 2026-04-24 01:08 | 39.98940 | -82.83484 | 1435 ft | 101 kts | 272° |
| 2026-04-24 01:08 | 39.98994 | -82.84412 | 1301 ft | 103 kts | 272° |
| 2026-04-24 01:09 | 39.99047 | -82.85348 | 1157 ft | 104 kts | 271° |
| 2026-04-24 01:09 | 39.99098 | -82.86265 | 1016 ft | 101 kts | 272° |
| 2026-04-24 01:09 | 39.99154 | -82.87141 | 871 ft | 92 kts | 272° |
| 2026-04-24 01:09 | 39.99204 | -82.87948 | 819 ft | 83 kts | 271° |
| 2026-04-24 01:10 | 39.99229 | -82.88602 | 817 ft | 63 kts | 276° |
| 2026-04-24 01:10 | 39.99264 | -82.89103 | 814 ft | 40 kts | 274° |
| 2026-04-24 01:10 | 39.99291 | -82.89397 | 811 ft | 27 kts | 283° |
| 2026-04-24 01:10 | 39.99367 | -82.89611 | 814 ft | 26 kts | 306° |
| 2026-04-24 01:11 | 39.99461 | -82.89676 | 813 ft | 18 kts | 52° |
| 2026-04-24 01:11 | 39.99462 | -82.89508 | 816 ft | 20 kts | 94° |
| 2026-04-24 01:11 | 39.99452 | -82.89323 | 817 ft | 20 kts | 93° |
| 2026-04-24 01:11 | 39.99472 | -82.89185 | 814 ft | 9 kts | 31° |
| 2026-04-24 01:12 | 39.99540 | -82.89175 | 815 ft | 10 kts | 359° |
| 2026-04-24 01:12 | 39.99611 | -82.89173 | 816 ft | 11 kts | 7° |
| 2026-04-24 01:12 | 39.99665 | -82.89147 | 815 ft | 8 kts | 74° |
| 2026-04-24 01:12 | 39.99655 | -82.89121 | 816 ft | 0 kts | 184° |
| 2026-04-24 01:13 | 39.99652 | -82.89122 | 816 ft | 1 kts | 206° |
| 2026-04-24 01:13 | 39.99635 | -82.89129 | 816 ft | 1 kts | 177° |
| 2026-04-24 01:13 | 39.99628 | -82.89129 | 816 ft | 0 kts | 184° |
| 2026-04-24 01:13 | 39.99627 | -82.89129 | 816 ft | 0 kts | 184° |